Time;durP1;ratioP1;P1;durP2;ratioP2;P2;SDS_P1;SDS_P2;PMS_P1;PMS_P2;Temp;Humidity;BMP_temperature;BMP_pressure;BME280_temperature;BME280_humidity;BME280_pressure;Samples;Min_cycle;Max_cycle;Signal;HPM_P1;HPM_P2
2022/07/17 00:02:02;;;;;;;0.50;0.50;;;16.70;64.00;;;;;;5015951;28;20168;-71
2022/07/17 00:04:28;;;;;;;0.50;0.50;;;16.60;64.80;;;;;;5015959;28;20172;-71
2022/07/17 00:06:53;;;;;;;0.40;0.40;;;16.50;63.60;;;;;;5015799;28;20172;-71
2022/07/17 00:09:19;;;;;;;0.53;0.53;;;16.50;63.20;;;;;;5015809;28;20183;-71
2022/07/17 00:11:45;;;;;;;0.80;0.53;;;16.50;65.20;;;;;;5016047;28;20167;-71
2022/07/17 00:14:10;;;;;;;0.43;0.43;;;16.40;64.50;;;;;;5015940;28;20178;-71
2022/07/17 00:16:36;;;;;;;0.60;0.60;;;16.40;65.30;;;;;;5015848;28;20172;-71
2022/07/17 00:19:02;;;;;;;0.60;0.57;;;16.40;65.10;;;;;;5015404;28;20206;-71
2022/07/17 00:21:28;;;;;;;0.50;0.50;;;16.30;66.40;;;;;;5015659;28;20202;-71
2022/07/17 00:23:53;;;;;;;0.50;0.50;;;16.30;66.90;;;;;;5014291;28;20891;-71
2022/07/17 00:26:19;;;;;;;0.50;0.50;;;16.20;65.80;;;;;;5015559;28;20309;-71
2022/07/17 00:28:45;;;;;;;0.80;0.80;;;16.10;66.50;;;;;;5015365;28;20207;-70
2022/07/17 00:31:11;;;;;;;1.03;1.03;;;16.10;66.70;;;;;;5015430;28;20179;-71
2022/07/17 00:33:36;;;;;;;0.40;0.40;;;16.00;66.00;;;;;;5015445;28;20173;-71
2022/07/17 00:36:03;;;;;;;0.70;0.67;;;15.90;66.90;;;;;;5015579;28;20168;-71
2022/07/17 00:38:28;;;;;;;0.80;0.67;;;15.90;66.00;;;;;;5015087;28;20274;-71
2022/07/17 00:40:57;;;;;;;0.67;0.60;;;15.90;66.60;;;;;;5015280;28;20838;-71
2022/07/17 00:43:24;;;;;;;0.40;0.40;;;16.00;67.70;;;;;;5015464;28;20530;-71
2022/07/17 00:46:00;;;;;;;0.40;0.40;;;15.80;68.20;;;;;;5015242;28;20820;-71
2022/07/17 00:48:26;;;;;;;0.60;0.50;;;15.70;68.40;;;;;;5014900;28;20504;-71
2022/07/17 00:50:53;;;;;;;0.70;0.70;;;15.70;68.70;;;;;;5015252;28;20816;-71
2022/07/17 00:53:19;;;;;;;0.67;0.67;;;15.60;68.30;;;;;;5015176;28;20405;-71
2022/07/17 00:55:47;;;;;;;1.40;1.30;;;15.60;70.00;;;;;;5015149;28;20464;-71
2022/07/17 00:58:20;;;;;;;0.70;0.70;;;15.50;84.60;;;;;;5014701;28;20484;-71
2022/07/17 01:00:48;;;;;;;1.63;1.10;;;15.60;70.80;;;;;;5014955;28;20407;-71
2022/07/17 01:03:14;;;;;;;0.83;0.83;;;15.50;71.60;;;;;;5014912;28;20431;-70
2022/07/17 01:05:40;;;;;;;0.90;0.90;;;15.40;71.20;;;;;;5014184;28;20962;-71
2022/07/17 01:08:06;;;;;;;0.50;0.50;;;15.40;75.00;;;;;;5014480;28;20498;-70
2022/07/17 01:10:32;;;;;;;1.30;1.30;;;15.30;72.00;;;;;;5014849;28;20195;-71
2022/07/17 01:12:58;;;;;;;0.57;0.57;;;15.30;72.20;;;;;;5014839;28;20180;-71
2022/07/17 01:15:24;;;;;;;0.50;0.50;;;15.30;71.80;;;;;;5014881;28;20191;-71
2022/07/17 01:17:50;;;;;;;1.83;0.60;;;15.30;72.20;;;;;;5014350;28;20458;-71
2022/07/17 01:20:16;;;;;;;1.00;1.00;;;15.30;72.80;;;;;;5014534;28;20190;-71
2022/07/17 01:22:45;;;;;;;0.70;0.60;;;15.30;73.00;;;;;;5014659;28;20403;-71
2022/07/17 01:25:12;;;;;;;1.10;0.93;;;15.30;72.90;;;;;;5014386;28;20431;-71
2022/07/17 01:27:38;;;;;;;0.87;0.87;;;15.20;72.70;;;;;;5014454;28;20983;-71
2022/07/17 01:30:04;;;;;;;0.30;0.30;;;15.20;73.80;;;;;;5014338;28;20438;-70
2022/07/17 01:32:34;;;;;;;0.80;0.80;;;15.20;74.50;;;;;;5014520;28;20915;-71
2022/07/17 01:35:01;;;;;;;2.20;0.60;;;15.20;75.50;;;;;;5014408;28;20718;-70
2022/07/17 01:37:27;;;;;;;0.40;0.40;;;15.10;75.90;;;;;;5014171;28;20453;-70
2022/07/17 01:39:53;;;;;;;1.57;0.60;;;15.10;76.80;;;;;;5014410;28;20517;-71
2022/07/17 01:42:22;;;;;;;1.30;1.30;;;15.10;76.10;;;;;;5014203;28;20490;-71
2022/07/17 01:44:49;;;;;;;0.83;0.83;;;15.10;77.50;;;;;;5014147;28;20168;-71
2022/07/17 01:47:15;;;;;;;0.67;0.67;;;15.00;77.00;;;;;;5012794;28;20530;-71
2022/07/17 01:50:02;;;;;;;0.73;0.73;;;15.00;77.70;;;;;;5014053;28;20425;-70
2022/07/17 01:52:28;;;;;;;0.53;0.53;;;15.00;78.50;;;;;;5014159;28;20932;-70
2022/07/17 01:54:53;;;;;;;2.60;1.33;;;15.00;79.00;;;;;;5014331;28;20407;-71
2022/07/17 01:57:20;;;;;;;0.40;0.40;;;15.00;80.30;;;;;;5013726;28;20291;-71
2022/07/17 01:59:46;;;;;;;0.90;0.70;;;15.00;80.20;;;;;;5013984;28;20246;-71
2022/07/17 02:02:17;;;;;;;0.73;0.73;;;15.00;78.70;;;;;;5014069;28;20476;-71
2022/07/17 02:04:45;;;;;;;0.70;0.70;;;15.10;79.30;;;;;;5014384;28;20398;-71
2022/07/17 02:07:11;;;;;;;0.73;0.73;;;15.10;78.70;;;;;;5013576;28;20809;-71
2022/07/17 02:09:37;;;;;;;0.60;0.60;;;15.10;79.20;;;;;;5013980;28;20425;-71
2022/07/17 02:12:04;;;;;;;0.63;0.57;;;15.10;79.80;;;;;;5013944;28;20498;-70
2022/07/17 02:14:30;;;;;;;0.80;0.60;;;15.00;79.40;;;;;;5014046;28;20969;-70
2022/07/17 02:16:56;;;;;;;0.50;0.50;;;15.10;81.20;;;;;;5013611;28;20413;-71
2022/07/17 02:19:21;;;;;;;1.47;0.60;;;15.10;80.10;;;;;;5013588;28;20818;-71
2022/07/17 02:21:47;;;;;;;0.43;0.43;;;15.00;81.70;;;;;;5013689;28;20663;-71
2022/07/17 02:24:13;;;;;;;0.53;0.53;;;15.00;82.70;;;;;;5013778;28;20190;-70
2022/07/17 02:26:39;;;;;;;2.10;2.00;;;15.00;83.40;;;;;;5013708;28;20233;-71
2022/07/17 02:29:04;;;;;;;1.13;1.03;;;14.90;84.30;;;;;;5013338;28;20426;-70
2022/07/17 02:31:30;;;;;;;0.60;0.60;;;14.80;84.40;;;;;;5013605;28;20414;-71
2022/07/17 02:33:56;;;;;;;0.93;0.70;;;14.80;85.80;;;;;;5013891;28;20175;-70
2022/07/17 02:36:22;;;;;;;0.70;0.70;;;14.80;84.80;;;;;;5013541;28;20554;-71
2022/07/17 02:38:47;;;;;;;2.30;0.80;;;14.80;83.50;;;;;;5013230;28;20203;-71
2022/07/17 02:41:13;;;;;;;0.30;0.30;;;14.80;85.00;;;;;;5013591;28;20239;-70
2022/07/17 02:43:38;;;;;;;0.50;0.50;;;14.90;85.70;;;;;;5013884;28;20168;-70
2022/07/17 02:46:04;;;;;;;0.43;0.43;;;14.90;86.00;;;;;;5013470;28;20202;-71
2022/07/17 02:48:30;;;;;;;0.67;0.67;;;14.80;86.40;;;;;;5013302;28;20198;-71
2022/07/17 02:50:56;;;;;;;0.70;0.70;;;14.80;87.10;;;;;;5013366;28;20265;-70
2022/07/17 02:53:21;;;;;;;2.00;0.70;;;14.80;86.70;;;;;;5013429;28;20533;-71
2022/07/17 02:55:47;;;;;;;0.80;0.80;;;14.70;86.90;;;;;;5013629;28;20183;-71
2022/07/17 02:58:13;;;;;;;1.33;0.90;;;14.90;85.90;;;;;;5013466;28;20202;-71
2022/07/17 03:00:39;;;;;;;0.40;0.40;;;14.70;85.60;;;;;;5013373;28;20216;-71
2022/07/17 03:03:05;;;;;;;1.27;0.50;;;14.80;86.20;;;;;;5013578;28;20399;-71
2022/07/17 03:05:30;;;;;;;0.57;0.57;;;14.80;86.50;;;;;;5013487;28;20414;-71
2022/07/17 03:07:56;;;;;;;1.00;0.97;;;14.80;87.00;;;;;;5013431;28;20429;-71
2022/07/17 03:10:22;;;;;;;0.50;0.50;;;14.70;86.70;;;;;;5013164;28;20206;-71
2022/07/17 03:12:48;;;;;;;1.00;0.90;;;14.80;86.00;;;;;;5013285;28;20175;-72
2022/07/17 03:15:14;;;;;;;0.53;0.53;;;14.80;86.00;;;;;;5013176;28;20479;-70
2022/07/17 03:17:39;;;;;;;0.63;0.63;;;14.90;86.10;;;;;;5013121;28;20671;-71
2022/07/17 03:20:07;;;;;;;0.90;0.90;;;15.00;84.20;;;;;;5011875;28;20278;-70
2022/07/17 03:22:32;;;;;;;0.47;0.47;;;15.10;83.10;;;;;;5011755;28;20494;-70
2022/07/17 03:24:58;;;;;;;1.23;1.23;;;15.20;84.70;;;;;;5010661;28;20464;-70
2022/07/17 03:27:23;;;;;;;1.13;0.63;;;15.10;84.30;;;;;;5011054;28;20171;-70
2022/07/17 03:29:49;;;;;;;0.90;0.90;;;15.20;84.10;;;;;;5015591;28;20199;-70
2022/07/17 03:32:15;;;;;;;0.90;0.70;;;15.10;85.00;;;;;;5015689;28;20263;-70
2022/07/17 03:34:41;;;;;;;2.00;1.10;;;15.20;84.30;;;;;;5015532;28;20421;-71
2022/07/17 03:37:07;;;;;;;1.07;0.90;;;15.20;84.80;;;;;;5015810;28;20229;-71
2022/07/17 03:39:33;;;;;;;0.77;0.77;;;15.10;85.50;;;;;;5016371;28;20786;-70
2022/07/17 03:41:58;;;;;;;0.50;0.50;;;15.00;84.80;;;;;;5016523;28;20403;-71
2022/07/17 03:44:24;;;;;;;0.50;0.50;;;15.00;86.90;;;;;;5016968;28;20173;-70
2022/07/17 03:46:50;;;;;;;1.03;0.90;;;14.90;87.40;;;;;;5016982;28;20175;-69
2022/07/17 03:49:15;;;;;;;0.40;0.40;;;15.00;86.90;;;;;;5015997;28;20562;-70
2022/07/17 03:51:42;;;;;;;0.40;0.40;;;14.90;87.40;;;;;;5016405;28;20617;-71
2022/07/17 03:54:07;;;;;;;0.60;0.60;;;14.90;87.90;;;;;;5016494;28;20457;-71
2022/07/17 03:56:33;;;;;;;0.80;0.70;;;15.00;90.40;;;;;;5016563;28;20894;-72
2022/07/17 03:58:59;;;;;;;0.90;0.90;;;15.50;92.70;;;;;;5015017;28;20236;-72
2022/07/17 04:01:25;;;;;;;0.47;0.47;;;16.10;92.90;;;;;;5015663;28;20174;-72
2022/07/17 04:03:51;;;;;;;2.83;1.47;;;16.70;90.20;;;;;;5016789;28;20175;-72
2022/07/17 04:06:16;;;;;;;0.60;0.60;;;17.30;89.70;;;;;;5014027;28;20187;-72
2022/07/17 04:08:42;;;;;;;0.60;0.60;;;17.80;86.90;;;;;;5015513;28;20474;-72
2022/07/17 04:11:08;;;;;;;1.07;0.97;;;18.20;84.50;;;;;;5014827;28;20178;-72
2022/07/17 04:13:33;;;;;;;1.03;1.03;;;18.60;82.50;;;;;;5013572;28;20176;-72
2022/07/17 04:16:00;;;;;;;0.50;0.50;;;18.90;80.20;;;;;;5015426;28;20258;-72
2022/07/17 04:18:32;;;;;;;1.20;1.10;;;19.20;78.80;;;;;;5015487;28;20195;-72
2022/07/17 04:21:02;;;;;;;0.57;0.57;;;19.40;77.60;;;;;;5015722;28;20780;-73
2022/07/17 04:23:27;;;;;;;0.97;0.80;;;19.60;76.80;;;;;;5015739;28;20407;-72
2022/07/17 04:25:54;;;;;;;0.60;0.60;;;19.70;75.10;;;;;;5015612;28;20416;-72
2022/07/17 04:28:20;;;;;;;0.47;0.47;;;19.80;74.90;;;;;;5015317;28;20246;-72
2022/07/17 04:30:46;;;;;;;0.50;0.43;;;19.90;74.20;;;;;;5015088;28;20413;-71
2022/07/17 04:33:12;;;;;;;0.70;0.70;;;19.90;71.00;;;;;;5014357;28;20452;-71
2022/07/17 04:35:38;;;;;;;0.90;0.90;;;19.50;69.70;;;;;;5015088;28;20414;-70
2022/07/17 04:38:05;;;;;;;1.70;0.90;;;18.10;72.30;;;;;;5013141;28;20818;-70
2022/07/17 04:40:32;;;;;;;0.93;0.93;;;18.10;73.00;;;;;;5013833;28;20402;-71
2022/07/17 04:42:57;;;;;;;1.13;1.13;;;17.60;75.40;;;;;;5015417;28;20568;-71
2022/07/17 04:45:23;;;;;;;0.60;0.60;;;17.40;78.10;;;;;;5015318;28;20977;-71
2022/07/17 04:47:49;;;;;;;0.80;0.50;;;17.60;77.20;;;;;;5015183;28;20179;-70
2022/07/17 04:50:14;;;;;;;0.70;0.70;;;17.50;75.70;;;;;;5015054;28;20187;-71
2022/07/17 04:52:40;;;;;;;0.57;0.57;;;17.50;76.40;;;;;;5015162;28;20507;-71
2022/07/17 04:55:06;;;;;;;0.63;0.63;;;17.50;76.60;;;;;;5015206;28;20179;-71
2022/07/17 04:57:32;;;;;;;0.70;0.60;;;17.60;76.70;;;;;;5014971;28;21021;-71
2022/07/17 04:59:58;;;;;;;0.70;0.70;;;17.80;77.40;;;;;;5015102;28;20427;-70
2022/07/17 05:02:26;;;;;;;0.93;0.93;;;17.90;75.30;;;;;;5015327;28;20402;-70
2022/07/17 05:04:51;;;;;;;1.03;0.93;;;18.20;75.50;;;;;;5014885;28;20430;-71
2022/07/17 05:07:17;;;;;;;1.27;1.17;;;18.40;72.20;;;;;;5014722;28;20417;-70
2022/07/17 05:09:45;;;;;;;0.70;0.70;;;18.60;72.50;;;;;;5014718;28;20556;-71
2022/07/17 05:12:10;;;;;;;1.27;1.03;;;19.50;72.90;;;;;;5013791;28;20179;-71
2022/07/17 05:14:36;;;;;;;1.37;0.70;;;20.60;70.30;;;;;;5014850;28;20409;-71
2022/07/17 05:17:02;;;;;;;0.40;0.40;;;21.60;67.00;;;;;;5014533;28;20175;-71
2022/07/17 05:19:28;;;;;;;0.50;0.50;;;22.20;64.70;;;;;;5013253;28;20480;-71
2022/07/17 05:21:53;;;;;;;1.40;1.23;;;22.60;62.80;;;;;;5014968;28;20189;-71
2022/07/17 05:24:19;;;;;;;0.50;0.50;;;22.60;61.60;;;;;;5014566;28;20186;-71
2022/07/17 05:26:44;;;;;;;0.50;0.50;;;22.30;59.30;;;;;;5014670;28;20178;-71
2022/07/17 05:29:10;;;;;;;1.13;0.83;;;22.10;61.20;;;;;;5014339;28;20203;-71
2022/07/17 05:31:36;;;;;;;1.07;1.03;;;21.80;62.60;;;;;;5014656;28;20182;-71
2022/07/17 05:34:02;;;;;;;0.40;0.40;;;21.60;64.40;;;;;;5014481;28;20533;-71
2022/07/17 05:36:27;;;;;;;0.73;0.60;;;21.30;61.90;;;;;;5014625;28;20225;-71
2022/07/17 05:38:53;;;;;;;0.80;0.80;;;20.80;62.00;;;;;;5014004;28;20200;-71
2022/07/17 05:41:19;;;;;;;0.60;0.60;;;20.50;65.40;;;;;;5014421;28;20701;-71
2022/07/17 05:43:45;;;;;;;0.60;0.50;;;20.50;64.70;;;;;;5014336;28;20501;-71
2022/07/17 05:46:11;;;;;;;0.40;0.40;;;20.60;64.70;;;;;;5014331;28;20199;-71
2022/07/17 05:48:36;;;;;;;0.80;0.80;;;20.60;66.00;;;;;;5012559;28;20438;-71
2022/07/17 05:51:02;;;;;;;0.73;0.73;;;20.90;64.20;;;;;;5013707;28;20262;-71
2022/07/17 05:53:28;;;;;;;0.80;0.60;;;21.10;59.70;;;;;;5014212;28;20251;-71
2022/07/17 05:55:54;;;;;;;1.00;1.00;;;21.40;62.00;;;;;;5014399;28;20173;-71
2022/07/17 05:58:20;;;;;;;0.67;0.67;;;22.90;66.80;;;;;;5013708;28;20852;-71
2022/07/17 06:00:46;;;;;;;0.60;0.60;;;22.80;61.00;;;;;;5014339;28;20407;-71
2022/07/17 06:03:11;;;;;;;0.50;0.50;;;23.20;58.80;;;;;;5013952;28;20177;-71
2022/07/17 06:05:37;;;;;;;0.57;0.57;;;23.30;59.00;;;;;;5013981;28;20174;-71
2022/07/17 06:08:03;;;;;;;0.73;0.60;;;23.20;57.60;;;;;;5013640;28;20196;-71
2022/07/17 06:10:30;;;;;;;0.53;0.53;;;23.00;56.00;;;;;;5013785;28;20582;-71
2022/07/17 06:12:56;;;;;;;0.53;0.53;;;22.80;62.70;;;;;;5013769;28;20435;-71
2022/07/17 06:15:22;;;;;;;0.73;0.57;;;22.70;59.30;;;;;;5014042;28;20408;-71
2022/07/17 06:17:49;;;;;;;0.43;0.43;;;22.60;58.40;;;;;;5013853;28;20433;-71
2022/07/17 06:20:17;;;;;;;0.60;0.60;;;22.40;54.50;;;;;;5013553;28;20463;-71
2022/07/17 06:22:45;;;;;;;0.60;0.60;;;22.60;59.80;;;;;;5012236;28;20543;-68
2022/07/17 06:25:12;;;;;;;1.13;0.60;;;23.20;53.80;;;;;;5011410;28;20433;-71
2022/07/17 06:27:42;;;;;;;1.40;0.70;;;24.40;54.20;;;;;;5012406;28;20432;-71
2022/07/17 06:30:13;;;;;;;0.60;0.50;;;26.10;52.90;;;;;;5012950;28;20449;-70
2022/07/17 06:32:39;;;;;;;0.40;0.40;;;26.70;48.00;;;;;;5014020;28;20427;-72
2022/07/17 06:35:06;;;;;;;0.40;0.40;;;27.20;46.60;;;;;;5012823;28;20384;-71
2022/07/17 06:37:31;;;;;;;1.33;0.60;;;27.40;44.30;;;;;;5013588;28;20460;-70
2022/07/17 06:39:57;;;;;;;0.70;0.70;;;27.20;46.00;;;;;;5012381;28;20506;-70
2022/07/17 06:42:23;;;;;;;0.60;0.53;;;27.00;46.40;;;;;;5013787;28;20178;-71
2022/07/17 06:44:48;;;;;;;0.80;0.80;;;26.90;46.60;;;;;;5013706;28;20719;-71
2022/07/17 06:47:14;;;;;;;0.40;0.40;;;27.20;46.70;;;;;;5013353;28;20221;-71
2022/07/17 06:49:40;;;;;;;0.40;0.40;;;27.20;43.00;;;;;;5013370;28;20195;-72
2022/07/17 06:52:05;;;;;;;0.63;0.63;;;27.20;43.90;;;;;;5013466;28;20637;-72
2022/07/17 06:54:31;;;;;;;0.47;0.47;;;27.20;44.50;;;;;;5013763;28;20176;-71
2022/07/17 06:56:56;;;;;;;0.83;0.50;;;27.80;44.40;;;;;;5013324;28;20251;-70
2022/07/17 06:59:23;;;;;;;0.70;0.70;;;28.40;42.10;;;;;;5012258;28;20695;-71
2022/07/17 07:01:50;;;;;;;0.97;0.87;;;29.20;41.20;;;;;;5013699;28;20242;-71
2022/07/17 07:04:16;;;;;;;0.93;0.50;;;29.80;39.90;;;;;;5015457;28;20398;-71
2022/07/17 07:06:42;;;;;;;0.73;0.50;;;30.50;40.40;;;;;;5017402;28;20465;-71
2022/07/17 07:09:08;;;;;;;0.60;0.60;;;31.70;37.70;;;;;;5015733;28;20783;-72
2022/07/17 07:11:34;;;;;;;1.07;0.90;;;32.90;37.20;;;;;;5017119;28;20486;-71
2022/07/17 07:13:59;;;;;;;5.03;0.73;;;33.90;34.50;;;;;;5017366;28;20194;-71
2022/07/17 07:16:25;;;;;;;1.03;0.60;;;34.00;33.10;;;;;;5017281;28;20172;-72
2022/07/17 07:18:51;;;;;;;0.90;0.80;;;33.60;33.10;;;;;;5016897;28;20211;-72
2022/07/17 07:21:17;;;;;;;0.53;0.53;;;32.80;33.60;;;;;;5017189;28;20409;-71
2022/07/17 07:23:43;;;;;;;1.50;0.70;;;32.40;34.50;;;;;;5016843;28;20413;-72
2022/07/17 07:26:09;;;;;;;0.67;0.50;;;32.40;34.60;;;;;;5015880;28;20213;-72
2022/07/17 07:28:34;;;;;;;0.60;0.60;;;31.90;35.00;;;;;;5016157;28;20237;-72
2022/07/17 07:31:01;;;;;;;0.70;0.70;;;31.40;34.70;;;;;;5017029;28;20314;-72
2022/07/17 07:33:27;;;;;;;0.67;0.60;;;31.20;35.70;;;;;;5017057;28;20807;-72
2022/07/17 07:35:52;;;;;;;2.37;1.30;;;31.00;36.80;;;;;;5017210;28;20172;-72
2022/07/17 07:38:18;;;;;;;0.60;0.60;;;31.00;35.00;;;;;;5016432;28;20660;-72
2022/07/17 07:40:44;;;;;;;0.93;0.83;;;31.40;35.60;;;;;;5016485;28;20180;-71
2022/07/17 07:43:09;;;;;;;0.50;0.50;;;31.80;34.30;;;;;;5014948;28;20624;-72
2022/07/17 07:45:35;;;;;;;0.97;0.50;;;32.00;34.20;;;;;;5015928;28;20699;-72
2022/07/17 07:48:01;;;;;;;0.50;0.50;;;32.60;33.90;;;;;;5014444;28;20179;-72
2022/07/17 07:50:28;;;;;;;0.70;0.70;;;32.90;33.50;;;;;;5016197;28;20217;-72
2022/07/17 07:52:55;;;;;;;0.50;0.50;;;33.20;32.60;;;;;;5016401;28;20179;-72
2022/07/17 07:55:21;;;;;;;0.50;0.40;;;33.60;32.50;;;;;;5015741;28;20407;-72
2022/07/17 07:57:50;;;;;;;0.50;0.40;;;34.20;31.60;;;;;;5016015;28;20454;-72
2022/07/17 08:00:16;;;;;;;0.67;0.50;;;35.50;32.60;;;;;;5016095;28;20782;-69
2022/07/17 08:02:42;;;;;;;0.50;0.50;;;36.20;31.20;;;;;;5016632;28;20468;-70
2022/07/17 08:05:08;;;;;;;0.70;0.70;;;37.20;29.60;;;;;;5016134;28;20951;-69
2022/07/17 08:07:36;;;;;;;0.70;0.50;;;38.30;28.80;;;;;;5015906;28;20546;-70
2022/07/17 08:10:02;;;;;;;0.70;0.70;;;38.70;27.90;;;;;;5015799;28;20433;-70
2022/07/17 08:12:27;;;;;;;0.40;0.40;;;39.40;27.80;;;;;;5015958;28;20434;-70
2022/07/17 08:14:53;;;;;;;0.83;0.50;;;39.50;28.00;;;;;;5015759;28;20887;-69
2022/07/17 08:17:19;;;;;;;0.60;0.53;;;40.10;27.50;;;;;;5014241;28;20175;-70
2022/07/17 08:19:45;;;;;;;0.90;0.73;;;40.70;26.80;;;;;;5015670;28;20192;-69
2022/07/17 08:22:12;;;;;;;0.67;0.67;;;41.20;27.60;;;;;;5015520;28;20777;-70
2022/07/17 08:24:37;;;;;;;0.50;0.50;;;41.20;25.60;;;;;;5013910;28;20430;-70
2022/07/17 08:27:03;;;;;;;0.50;0.50;;;40.90;26.10;;;;;;5014292;28;20411;-70
2022/07/17 08:29:29;;;;;;;0.70;0.70;;;40.90;26.10;;;;;;5013632;28;20257;-70
2022/07/17 08:31:55;;;;;;;0.50;0.50;;;40.40;26.80;;;;;;5013456;28;20250;-69
2022/07/17 08:34:21;;;;;;;1.00;0.70;;;40.40;26.10;;;;;;5015510;28;20171;-70
2022/07/17 08:36:47;;;;;;;0.67;0.50;;;40.40;26.50;;;;;;5015582;28;20418;-69
2022/07/17 08:39:13;;;;;;;0.80;0.80;;;40.40;26.00;;;;;;5014589;28;20989;-69
2022/07/17 08:41:39;;;;;;;0.70;0.70;;;40.10;27.20;;;;;;5015222;28;20175;-70
2022/07/17 08:44:06;;;;;;;0.50;0.50;;;39.90;26.00;;;;;;5015315;28;20654;-70
2022/07/17 08:46:36;;;;;;;0.57;0.47;;;40.00;26.40;;;;;;5013689;28;20407;-70
2022/07/17 08:49:03;;;;;;;0.60;0.60;;;40.10;26.40;;;;;;5014951;28;20483;-69
2022/07/17 08:51:29;;;;;;;0.70;0.70;;;40.80;26.70;;;;;;5014324;28;20977;-69
2022/07/17 08:53:56;;;;;;;0.77;0.60;;;40.20;25.80;;;;;;5013978;28;20407;-70
2022/07/17 08:56:22;;;;;;;1.00;1.00;;;39.80;26.90;;;;;;5015316;28;20184;-69
2022/07/17 08:58:48;;;;;;;0.70;0.70;;;38.90;27.40;;;;;;5013277;28;20469;-68
2022/07/17 09:01:15;;;;;;;0.97;0.87;;;38.80;27.50;;;;;;5015482;28;20310;-69
2022/07/17 09:03:52;;;;;;;0.80;0.77;;;39.10;27.50;;;;;;5015559;28;20410;-69
2022/07/17 09:06:21;;;;;;;1.03;0.90;;;39.50;27.70;;;;;;5015177;28;20431;-70
2022/07/17 09:08:47;;;;;;;0.70;0.70;;;40.40;27.40;;;;;;5013021;28;20430;-70
2022/07/17 09:11:13;;;;;;;0.63;0.60;;;41.00;26.70;;;;;;5013357;28;20421;-70
2022/07/17 09:13:44;;;;;;;0.57;0.57;;;41.40;24.90;;;;;;5014898;28;20651;-70
2022/07/17 09:16:12;;;;;;;0.83;0.83;;;40.40;26.70;;;;;;5014762;28;20175;-69
2022/07/17 09:18:53;;;;;;;0.90;0.80;;;40.30;25.40;;;;;;5012538;28;20842;-70
2022/07/17 09:21:27;;;;;;;1.03;0.60;;;40.40;26.50;;;;;;5014507;28;20498;-69
2022/07/17 09:24:05;;;;;;;0.93;0.80;;;39.20;27.20;;;;;;5013298;28;20441;-69
2022/07/17 09:26:32;;;;;;;0.80;0.80;;;38.70;27.00;;;;;;5011974;28;20493;-69
2022/07/17 09:29:00;;;;;;;0.60;0.60;;;38.40;26.70;;;;;;5012739;28;20438;-69
2022/07/17 09:31:32;;;;;;;0.80;0.67;;;38.40;27.40;;;;;;5012820;28;20422;-69
2022/07/17 09:33:58;;;;;;;0.53;0.53;;;38.60;27.00;;;;;;5013716;28;20437;-69
2022/07/17 09:36:25;;;;;;;1.00;0.90;;;39.20;27.10;;;;;;5014468;28;20418;-69
2022/07/17 09:38:55;;;;;;;0.60;0.60;;;39.50;27.60;;;;;;5013969;28;20462;-69
2022/07/17 09:41:23;;;;;;;1.57;0.70;;;39.20;27.10;;;;;;5014146;28;20545;-69
2022/07/17 09:43:54;;;;;;;0.60;0.60;;;39.70;25.50;;;;;;5014441;28;20937;-69
2022/07/17 09:46:23;;;;;;;0.53;0.53;;;39.40;26.20;;;;;;5014251;28;20910;-69
2022/07/17 09:48:55;;;;;;;0.60;0.60;;;38.70;26.70;;;;;;5014052;28;20430;-69
2022/07/17 09:51:29;;;;;;;0.80;0.80;;;37.90;27.40;;;;;;5014194;28;20399;-69
2022/07/17 09:53:58;;;;;;;0.63;0.63;;;38.20;28.50;;;;;;5012822;28;20414;-69
2022/07/17 09:56:28;;;;;;;0.70;0.50;;;38.80;26.90;;;;;;5014045;28;20414;-69
2022/07/17 09:59:01;;;;;;;0.50;0.50;;;39.10;25.40;;;;;;5013701;28;20552;-69
2022/07/17 10:01:27;;;;;;;0.40;0.40;;;38.90;26.60;;;;;;5013995;28;20477;-69
2022/07/17 10:03:53;;;;;;;0.70;0.70;;;38.20;25.80;;;;;;5014116;28;20506;-69
2022/07/17 10:06:23;;;;;;;0.50;0.50;;;37.80;26.60;;;;;;5013837;28;20252;-69
2022/07/17 10:08:49;;;;;;;0.70;0.70;;;37.00;27.40;;;;;;5013751;28;20537;-69
2022/07/17 10:11:19;;;;;;;1.20;0.60;;;36.70;28.40;;;;;;5013845;28;20773;-69
2022/07/17 10:13:46;;;;;;;0.80;0.53;;;36.40;27.50;;;;;;5013379;28;20429;-69
2022/07/17 10:16:13;;;;;;;0.87;0.87;;;36.70;27.50;;;;;;5013091;28;20406;-69
2022/07/17 10:18:41;;;;;;;0.60;0.60;;;36.80;28.40;;;;;;5012793;28;20462;-69
2022/07/17 10:21:14;;;;;;;0.60;0.50;;;36.60;29.80;;;;;;5013333;28;20406;-69
2022/07/17 10:23:41;;;;;;;0.60;0.60;;;36.40;27.70;;;;;;5013145;28;20496;-69
2022/07/17 10:26:07;;;;;;;0.80;0.70;;;36.10;27.10;;;;;;5013150;28;20480;-69
2022/07/17 10:28:40;;;;;;;0.63;0.60;;;35.40;28.40;;;;;;5013573;28;20912;-69
2022/07/17 10:31:06;;;;;;;0.73;0.70;;;35.20;28.10;;;;;;5013602;28;20418;-69
2022/07/17 10:33:31;;;;;;;0.40;0.40;;;35.20;28.60;;;;;;5013598;28;20790;-69
2022/07/17 10:35:59;;;;;;;0.50;0.50;;;35.40;29.00;;;;;;5013637;28;20178;-69
2022/07/17 10:38:27;;;;;;;0.53;0.53;;;35.50;28.60;;;;;;5016753;28;20230;-69
2022/07/17 10:41:00;;;;;;;0.70;0.70;;;35.60;28.80;;;;;;5017794;28;20846;-70
2022/07/17 10:43:26;;;;;;;0.40;0.40;;;35.70;29.40;;;;;;5017797;28;20849;-69
2022/07/17 10:45:52;;;;;;;0.60;0.53;;;35.10;28.70;;;;;;5017588;28;20442;-69
2022/07/17 10:48:20;;;;;;;0.53;0.53;;;34.30;28.70;;;;;;5017269;28;20229;-69
2022/07/17 10:50:48;;;;;;;1.03;0.93;;;34.50;29.60;;;;;;5017578;28;20641;-70
2022/07/17 10:53:24;;;;;;;0.60;0.60;;;34.70;29.10;;;;;;5017495;28;20410;-69
2022/07/17 10:55:55;;;;;;;0.90;0.90;;;34.80;29.00;;;;;;5017458;28;20402;-69
2022/07/17 10:58:33;;;;;;;0.83;0.83;;;34.50;28.50;;;;;;5017051;28;20464;-69
2022/07/17 11:01:02;;;;;;;0.50;0.50;;;34.40;29.60;;;;;;5017512;28;20747;-69
2022/07/17 11:03:29;;;;;;;0.60;0.53;;;34.30;29.60;;;;;;5017394;28;20815;-69
2022/07/17 11:06:05;;;;;;;1.40;0.70;;;34.00;29.40;;;;;;5017372;28;20399;-69
2022/07/17 11:08:31;;;;;;;0.47;0.47;;;33.70;32.70;;;;;;5016915;28;20426;-69
2022/07/17 11:10:57;;;;;;;0.40;0.40;;;32.90;29.90;;;;;;5017207;28;20472;-69
2022/07/17 11:13:22;;;;;;;0.50;0.50;;;32.50;30.00;;;;;;5016784;28;20910;-69
2022/07/17 11:15:48;;;;;;;0.50;0.50;;;32.00;29.60;;;;;;5017109;28;20541;-69
2022/07/17 11:18:14;;;;;;;0.40;0.40;;;31.70;30.90;;;;;;5016601;28;20598;-69
2022/07/17 11:21:00;;;;;;;0.50;0.50;;;31.40;31.10;;;;;;5016953;28;20463;-69
2022/07/17 11:23:31;;;;;;;0.60;0.50;;;30.90;32.60;;;;;;5016705;28;20254;-69
2022/07/17 11:25:59;;;;;;;0.83;0.50;;;31.10;31.20;;;;;;5016306;28;20434;-69
2022/07/17 11:28:34;;;;;;;0.40;0.40;;;31.00;32.80;;;;;;5014753;28;20417;-69
2022/07/17 11:31:01;;;;;;;0.50;0.50;;;31.10;31.10;;;;;;5016838;28;20859;-72
2022/07/17 11:33:26;;;;;;;0.60;0.60;;;31.00;32.30;;;;;;5016789;28;20409;-69
2022/07/17 11:35:54;;;;;;;0.77;0.50;;;30.80;32.10;;;;;;5016733;28;20410;-69
2022/07/17 11:38:30;;;;;;;0.50;0.50;;;30.70;30.60;;;;;;5016346;28;20206;-69
2022/07/17 11:40:56;;;;;;;0.43;0.43;;;30.80;29.40;;;;;;5016374;28;20406;-69
2022/07/17 11:43:22;;;;;;;0.60;0.60;;;30.80;30.30;;;;;;5016666;28;20418;-69
2022/07/17 11:45:48;;;;;;;0.53;0.53;;;30.80;29.50;;;;;;5016577;28;20497;-69
2022/07/17 11:48:14;;;;;;;1.07;1.03;;;30.70;29.60;;;;;;5015719;28;20418;-69
2022/07/17 11:50:40;;;;;;;0.60;0.50;;;30.80;32.10;;;;;;5016250;28;20442;-69
2022/07/17 11:53:06;;;;;;;0.60;0.60;;;30.80;32.20;;;;;;5016617;28;20869;-69
2022/07/17 11:55:37;;;;;;;0.77;0.60;;;30.90;30.00;;;;;;5016445;28;20175;-69
2022/07/17 11:58:02;;;;;;;1.43;1.10;;;30.90;32.60;;;;;;5015865;28;20195;-70
2022/07/17 12:00:28;;;;;;;0.47;0.47;;;30.70;29.30;;;;;;5016006;28;20434;-69
2022/07/17 12:03:03;;;;;;;0.50;0.50;;;30.70;31.10;;;;;;5015758;28;20229;-69
2022/07/17 12:05:30;;;;;;;0.50;0.50;;;30.60;29.50;;;;;;5015879;28;20413;-69
2022/07/17 12:07:55;;;;;;;1.37;0.60;;;30.30;30.00;;;;;;5015936;28;20828;-69
2022/07/17 12:10:24;;;;;;;1.40;0.57;;;30.20;31.10;;;;;;5015751;28;20483;-69
2022/07/17 12:13:06;;;;;;;0.60;0.60;;;30.20;31.90;;;;;;5016038;28;20178;-69
2022/07/17 12:15:44;;;;;;;0.70;0.70;;;30.20;30.80;;;;;;5016263;28;20422;-69
2022/07/17 12:18:28;;;;;;;0.63;0.50;;;30.20;30.30;;;;;;5015592;28;20974;-69
2022/07/17 12:20:56;;;;;;;0.43;0.43;;;30.30;30.20;;;;;;5015722;28;20549;-69
2022/07/17 12:23:37;;;;;;;0.67;0.50;;;30.10;29.50;;;;;;5015874;28;20501;-69
2022/07/17 12:26:15;;;;;;;0.60;0.60;;;29.80;30.30;;;;;;5015502;28;20915;-69
2022/07/17 12:28:41;;;;;;;0.40;0.40;;;29.50;32.90;;;;;;5015435;28;20805;-69
2022/07/17 12:31:11;;;;;;;0.43;0.43;;;29.50;29.70;;;;;;5015784;28;20423;-69
2022/07/17 12:33:37;;;;;;;0.60;0.60;;;29.70;32.20;;;;;;5015658;28;20406;-69
2022/07/17 12:36:03;;;;;;;1.07;0.90;;;29.70;31.10;;;;;;5015615;28;20413;-69
2022/07/17 12:38:29;;;;;;;0.60;0.60;;;29.70;30.40;;;;;;5015034;28;20512;-69
2022/07/17 12:40:55;;;;;;;0.63;0.50;;;29.60;31.20;;;;;;5015387;28;20229;-69
2022/07/17 12:43:21;;;;;;;0.67;0.67;;;29.60;31.60;;;;;;5015586;28;20659;-69
2022/07/17 12:45:47;;;;;;;0.60;0.60;;;29.60;30.30;;;;;;5015371;28;20435;-69
2022/07/17 12:48:12;;;;;;;1.17;0.80;;;29.60;31.60;;;;;;5015130;28;20179;-70